Time;durP1;ratioP1;P1;durP2;ratioP2;P2;SDS_P1;SDS_P2;PMS_P1;PMS_P2;Temp;Humidity;BMP_temperature;BMP_pressure;BME280_temperature;BME280_humidity;BME280_pressure;Samples;Min_cycle;Max_cycle;Signal;HPM_P1;HPM_P2
2022/02/01 00:02:00;;;;;;;;;9.50;8.50;;;;;;;;5011466;28;45844;-94
2022/02/01 00:07:11;;;;;;;;;13.75;12.75;;;;;;;;4994250;28;45354;-93
2022/02/01 00:33:57;;;;;;;;;10.25;8.00;;;;;;;;4929962;28;45769;-93
2022/02/01 00:36:34;;;;;;;;;10.00;10.00;;;;;;;;4898116;28;45557;-94
2022/02/01 00:39:03;;;;;;;;;11.50;7.75;;;;;;;;4898637;28;45439;-94
2022/02/01 00:41:31;;;;;;;;;8.00;6.00;;;;;;;;4928956;28;45633;-93
2022/02/01 00:43:57;;;;;;;;;11.00;11.00;;;;;;;;4926133;28;45546;-94
2022/02/01 00:46:22;;;;;;;;;8.75;5.50;;;;;;;;4972243;28;45610;-93
2022/02/01 00:48:48;;;;;;;;;9.50;6.25;;;;;;;;4999796;28;53138;-93
2022/02/01 00:51:13;;;;;;;;;10.00;7.50;;;;;;;;4999533;28;45655;-93
2022/02/01 00:53:40;;;;;;;;;8.75;5.00;;;;;;;;4998528;28;48562;-94
2022/02/01 00:56:06;;;;;;;;;9.75;7.50;;;;;;;;4988452;28;46838;-94
2022/02/01 00:58:31;;;;;;;;;9.25;7.75;;;;;;;;4999043;28;45401;-94
2022/02/01 01:00:56;;;;;;;;;9.00;7.75;;;;;;;;4999238;28;45475;-94
2022/02/01 01:03:21;;;;;;;;;10.50;8.75;;;;;;;;5016999;28;45654;-94
2022/02/01 01:05:47;;;;;;;;;8.00;8.00;;;;;;;;4999262;28;46190;-94
2022/02/01 01:08:12;;;;;;;;;5.00;5.00;;;;;;;;4987439;28;45524;-93
2022/02/01 01:10:37;;;;;;;;;6.00;6.00;;;;;;;;4984048;28;45624;-94
2022/02/01 01:15:57;;;;;;;;;6.50;5.75;;;;;;;;5018661;28;45357;-93
2022/02/01 01:18:49;;;;;;;;;5.75;4.75;;;;;;;;5020106;28;45527;-94
2022/02/01 01:53:44;;;;;;;;;7.67;7.67;;;;;;;;5015652;28;45384;-94
2022/02/01 01:56:09;;;;;;;;;6.33;6.33;;;;;;;;4984598;28;47963;-93
2022/02/01 01:58:34;;;;;;;;;10.25;8.50;;;;;;;;4982921;28;45745;-93
2022/02/01 02:01:11;;;;;;;;;8.50;8.50;;;;;;;;4999269;28;45341;-93
2022/02/01 02:03:37;;;;;;;;;9.00;6.00;;;;;;;;4994735;28;45458;-93
2022/02/01 02:06:02;;;;;;;;;13.33;9.00;;;;;;;;4997796;28;47801;-94
2022/02/01 02:08:28;;;;;;;;;7.33;7.00;;;;;;;;5015243;28;45635;-94
2022/02/01 02:11:10;;;;;;;;;7.33;7.33;;;;;;;;4987567;28;45499;-93
2022/02/01 02:16:20;;;;;;;;;6.67;6.67;;;;;;;;5013354;28;45828;-93
2022/02/01 02:18:45;;;;;;;;;7.33;4.67;;;;;;;;4997787;28;45686;-93
2022/02/01 02:21:11;;;;;;;;;7.33;7.33;;;;;;;;4998709;28;45368;-93
2022/02/01 02:23:36;;;;;;;;;13.33;5.67;;;;;;;;4997342;28;45531;-94
2022/02/01 02:26:05;;;;;;;;;7.33;5.33;;;;;;;;4994158;28;47507;-94
2022/02/01 02:28:30;;;;;;;;;6.00;6.00;;;;;;;;4998296;28;45422;-93
2022/02/01 02:30:56;;;;;;;;;2.33;2.33;;;;;;;;4998405;28;45517;-94
2022/02/01 02:33:21;;;;;;;;;7.33;7.33;;;;;;;;4998091;28;45568;-94
2022/02/01 02:35:56;;;;;;;;;2.67;2.00;;;;;;;;4990489;28;48141;-93
2022/02/01 02:39:28;;;;;;;;;10.33;6.00;;;;;;;;4993290;28;45686;-94
2022/02/01 02:46:27;;;;;;;;;8.00;5.00;;;;;;;;5014586;28;47160;-94
2022/02/01 02:48:53;;;;;;;;;11.00;9.00;;;;;;;;4997176;28;45575;-94
2022/02/01 02:51:18;;;;;;;;;11.67;6.00;;;;;;;;4997821;28;45318;-94
2022/02/01 02:53:44;;;;;;;;;11.67;7.67;;;;;;;;4980561;28;45244;-93
2022/02/01 02:56:09;;;;;;;;;9.00;7.00;;;;;;;;4990743;28;48106;-93
2022/02/01 02:58:34;;;;;;;;;9.00;5.67;;;;;;;;4996587;28;45516;-93
2022/02/01 03:00:59;;;;;;;;;9.00;6.67;;;;;;;;4994172;28;45334;-94
2022/02/01 03:03:25;;;;;;;;;10.00;5.67;;;;;;;;4997193;28;45345;-93
2022/02/01 03:05:50;;;;;;;;;8.33;7.67;;;;;;;;4988833;28;47459;-93
2022/02/01 03:08:15;;;;;;;;;11.33;6.67;;;;;;;;4989368;28;45330;-94
2022/02/01 03:10:43;;;;;;;;;8.00;5.00;;;;;;;;5014087;28;45724;-94
2022/02/01 03:13:16;;;;;;;;;6.67;5.33;;;;;;;;4994240;28;45477;-93
2022/02/01 03:20:57;;;;;;;;;7.00;6.00;;;;;;;;5008324;28;46511;-94
2022/02/01 03:23:23;;;;;;;;;6.33;5.00;;;;;;;;4983716;28;45522;-93
2022/02/01 03:25:48;;;;;;;;;6.00;5.00;;;;;;;;4988516;28;48252;-93
2022/02/01 03:28:13;;;;;;;;;6.00;6.00;;;;;;;;4993638;28;45414;-93
2022/02/01 03:30:38;;;;;;;;;9.00;6.00;;;;;;;;4997404;28;45299;-93
2022/02/01 03:33:04;;;;;;;;;5.67;4.33;;;;;;;;4990784;28;45312;-94
2022/02/01 03:35:29;;;;;;;;;10.67;5.67;;;;;;;;4982981;28;48413;-92
2022/02/01 03:37:55;;;;;;;;;7.75;6.00;;;;;;;;4987328;28;45672;-93
2022/02/01 03:40:21;;;;;;;;;7.00;5.50;;;;;;;;4994332;28;45465;-94
2022/02/01 03:42:46;;;;;;;;;9.00;4.50;;;;;;;;4992408;28;45943;-92
2022/02/01 03:45:12;;;;;;;;;5.00;5.00;;;;;;;;4994077;28;47141;-93
2022/02/01 03:47:37;;;;;;;;;5.33;3.67;;;;;;;;4994709;28;45458;-93
2022/02/01 03:50:07;;;;;;;;;10.33;7.33;;;;;;;;4985582;28;45538;-94
2022/02/01 03:52:32;;;;;;;;;9.00;5.33;;;;;;;;4991734;28;45461;-92
2022/02/01 03:54:57;;;;;;;;;3.67;3.00;;;;;;;;4990640;28;48241;-94
2022/02/01 03:57:23;;;;;;;;;6.67;5.00;;;;;;;;4992779;28;45702;-94
2022/02/01 03:59:48;;;;;;;;;5.00;3.00;;;;;;;;4977292;28;45535;-94
2022/02/01 04:02:14;;;;;;;;;7.00;6.00;;;;;;;;4987230;28;45493;-92
2022/02/01 04:04:40;;;;;;;;;5.33;5.33;;;;;;;;4992782;28;48216;-93
2022/02/01 04:07:06;;;;;;;;;4.67;2.67;;;;;;;;4994323;28;45620;-94
2022/02/01 04:09:32;;;;;;;;;9.67;3.67;;;;;;;;4994511;28;45425;-93
2022/02/01 04:11:59;;;;;;;;;5.67;5.00;;;;;;;;4991966;28;45592;-93
2022/02/01 04:14:27;;;;;;;;;4.67;4.00;;;;;;;;4990103;28;47548;-93
2022/02/01 04:16:53;;;;;;;;;6.00;5.33;;;;;;;;4985350;28;45410;-94
2022/02/01 04:19:18;;;;;;;;;4.00;4.00;;;;;;;;4990570;28;45487;-93
2022/02/01 04:22:02;;;;;;;;;7.00;5.00;;;;;;;;4993095;28;45700;-93
2022/02/01 04:24:28;;;;;;;;;6.00;5.00;;;;;;;;4985943;28;47332;-93
2022/02/01 04:26:54;;;;;;;;;5.67;0.67;;;;;;;;4993114;28;45864;-93
2022/02/01 04:29:19;;;;;;;;;6.00;6.00;;;;;;;;4985707;28;45441;-93
2022/02/01 04:31:45;;;;;;;;;5.00;3.00;;;;;;;;4984521;28;45508;-93
2022/02/01 04:34:10;;;;;;;;;3.67;3.33;;;;;;;;4992461;28;46831;-93
2022/02/01 04:36:35;;;;;;;;;7.67;6.33;;;;;;;;4995984;28;45348;-93
2022/02/01 04:39:00;;;;;;;;;2.67;2.67;;;;;;;;4996884;28;45294;-93
2022/02/01 04:41:26;;;;;;;;;5.00;5.00;;;;;;;;4994874;28;45708;-93
2022/02/01 04:43:52;;;;;;;;;5.33;2.00;;;;;;;;4996765;28;50620;-94
2022/02/01 04:46:18;;;;;;;;;5.33;3.00;;;;;;;;4994099;28;45400;-93
2022/02/01 04:48:44;;;;;;;;;5.67;5.00;;;;;;;;4996630;28;45421;-93
2022/02/01 04:51:09;;;;;;;;;5.33;2.33;;;;;;;;4996293;28;45614;-93
2022/02/01 04:53:35;;;;;;;;;5.67;5.67;;;;;;;;4990853;28;48140;-93
2022/02/01 04:56:00;;;;;;;;;3.00;3.00;;;;;;;;4977127;28;45485;-93
2022/02/01 04:58:25;;;;;;;;;2.67;2.67;;;;;;;;4991479;28;45898;-92
2022/02/01 05:00:51;;;;;;;;;6.67;5.33;;;;;;;;4994395;28;45441;-94
2022/02/01 05:03:17;;;;;;;;;6.00;5.67;;;;;;;;4977596;28;48055;-93
2022/02/01 05:05:42;;;;;;;;;9.00;6.00;;;;;;;;4997881;28;45732;-93
2022/02/01 05:08:10;;;;;;;;;3.00;3.00;;;;;;;;5000586;28;45339;-93
2022/02/01 05:10:36;;;;;;;;;4.33;2.67;;;;;;;;5010172;28;44873;-93
2022/02/01 05:15:47;;;;;;;;;6.67;5.33;;;;;;;;4996837;28;45523;-92
2022/02/01 05:18:22;;;;;;;;;8.00;5.00;;;;;;;;4996336;28;45427;-94
2022/02/01 05:23:12;;;;;;;;;5.67;4.33;;;;;;;;4997286;28;46158;-93
2022/02/01 05:25:40;;;;;;;;;8.33;5.67;;;;;;;;4995834;28;45613;-93
2022/02/01 05:28:05;;;;;;;;;5.67;4.67;;;;;;;;4991782;28;45393;-93
2022/02/01 05:30:30;;;;;;;;;5.33;3.67;;;;;;;;4994482;28;45878;-93
2022/02/01 05:32:55;;;;;;;;;9.00;3.67;;;;;;;;4994287;28;46909;-93
2022/02/01 05:35:21;;;;;;;;;10.00;4.33;;;;;;;;4994406;28;45743;-94
2022/02/01 05:37:46;;;;;;;;;6.00;5.00;;;;;;;;4993235;28;45381;-94
2022/02/01 05:40:12;;;;;;;;;4.00;2.67;;;;;;;;4993715;28;45404;-94
2022/02/01 05:42:59;;;;;;;;;2.67;2.67;;;;;;;;4978786;28;47402;-93
2022/02/01 05:45:25;;;;;;;;;5.00;2.00;;;;;;;;4979638;28;45427;-93
2022/02/01 05:47:50;;;;;;;;;9.67;6.00;;;;;;;;4991019;28;51374;-93
2022/02/01 05:50:15;;;;;;;;;7.33;3.00;;;;;;;;4991847;28;45656;-94
2022/02/01 05:52:41;;;;;;;;;8.67;5.00;;;;;;;;4989898;28;47222;-93
2022/02/01 05:55:07;;;;;;;;;2.00;2.00;;;;;;;;4996414;28;45930;-88
2022/02/01 05:57:32;;;;;;;;;5.00;3.00;;;;;;;;5013468;28;45650;-89
2022/02/01 05:59:57;;;;;;;;;5.00;4.33;;;;;;;;5011406;28;45532;-88
2022/02/01 06:02:23;;;;;;;;;4.67;4.67;;;;;;;;5010092;28;45870;-91
2022/02/01 06:04:48;;;;;;;;;5.00;5.00;;;;;;;;4994572;28;45596;-90
2022/02/01 06:07:13;;;;;;;;;5.00;5.00;;;;;;;;4992645;28;45402;-91
2022/02/01 06:09:39;;;;;;;;;8.00;3.33;;;;;;;;4996207;28;45475;-90
2022/02/01 06:12:05;;;;;;;;;6.67;5.33;;;;;;;;4992933;28;47377;-89
2022/02/01 06:14:30;;;;;;;;;9.67;6.00;;;;;;;;4992696;28;45861;-90
2022/02/01 06:16:55;;;;;;;;;2.67;2.67;;;;;;;;5010679;28;45543;-91
2022/02/01 06:19:20;;;;;;;;;3.00;3.00;;;;;;;;4993907;28;45437;-91
2022/02/01 06:21:46;;;;;;;;;8.00;2.00;;;;;;;;4993612;28;45989;-90
2022/02/01 06:24:15;;;;;;;;;5.00;3.00;;;;;;;;4994858;28;45593;-92
2022/02/01 06:26:40;;;;;;;;;4.33;3.00;;;;;;;;4991706;28;45448;-91
2022/02/01 06:29:05;;;;;;;;;2.33;2.33;;;;;;;;4990580;28;45483;-90
2022/02/01 06:31:31;;;;;;;;;11.67;6.33;;;;;;;;4978541;28;47265;-90
2022/02/01 06:33:56;;;;;;;;;1.33;1.33;;;;;;;;4993739;28;45455;-91
2022/02/01 06:36:21;;;;;;;;;6.00;4.00;;;;;;;;4995045;28;45653;-90
2022/02/01 06:38:46;;;;;;;;;3.67;3.67;;;;;;;;4992554;28;45468;-90
2022/02/01 06:41:12;;;;;;;;;3.33;2.33;;;;;;;;5009247;28;46249;-90
2022/02/01 06:43:37;;;;;;;;;2.33;2.33;;;;;;;;4994876;28;45684;-90
2022/02/01 06:46:02;;;;;;;;;5.00;4.33;;;;;;;;4993009;28;45390;-90
2022/02/01 06:48:27;;;;;;;;;10.33;5.33;;;;;;;;4996129;28;45381;-90
2022/02/01 06:50:53;;;;;;;;;5.67;5.00;;;;;;;;4991315;28;47151;-91
2022/02/01 06:53:20;;;;;;;;;5.00;3.33;;;;;;;;4992177;28;45436;-90
2022/02/01 06:55:57;;;;;;;;;6.00;2.33;;;;;;;;4991725;28;45515;-91
2022/02/01 06:58:22;;;;;;;;;3.00;3.00;;;;;;;;4992289;28;45622;-90
2022/02/01 07:00:48;;;;;;;;;3.00;2.00;;;;;;;;4993683;28;47378;-90
2022/02/01 07:03:13;;;;;;;;;6.00;4.33;;;;;;;;4993687;28;45717;-91
2022/02/01 07:05:38;;;;;;;;;3.67;3.00;;;;;;;;4991626;28;45283;-91
2022/02/01 07:08:03;;;;;;;;;5.00;3.00;;;;;;;;5010463;28;45468;-90
2022/02/01 07:10:29;;;;;;;;;3.00;2.00;;;;;;;;5009400;28;45560;-90
2022/02/01 07:12:54;;;;;;;;;4.00;2.67;;;;;;;;4992849;28;46222;-89
2022/02/01 07:15:21;;;;;;;;;2.67;2.67;;;;;;;;4994831;28;45320;-91
2022/02/01 07:17:50;;;;;;;;;4.00;3.67;;;;;;;;5009319;28;45503;-91
2022/02/01 07:20:16;;;;;;;;;5.67;5.67;;;;;;;;4991782;28;48405;-90
2022/02/01 07:22:43;;;;;;;;;6.33;2.00;;;;;;;;4990583;28;46345;-91
2022/02/01 07:25:18;;;;;;;;;5.00;5.00;;;;;;;;4995006;28;45478;-92
2022/02/01 07:27:47;;;;;;;;;5.00;2.00;;;;;;;;4994221;28;45484;-90
2022/02/01 07:30:13;;;;;;;;;3.00;2.00;;;;;;;;4976031;28;46120;-94
2022/02/01 07:32:38;;;;;;;;;6.00;5.00;;;;;;;;5008580;28;45429;-89
2022/02/01 07:35:04;;;;;;;;;1.67;1.67;;;;;;;;5009627;28;45369;-89
2022/02/01 07:37:30;;;;;;;;;5.00;3.00;;;;;;;;5009489;28;45498;-92
2022/02/01 07:39:55;;;;;;;;;9.67;5.00;;;;;;;;4991684;28;48026;-87
2022/02/01 07:42:20;;;;;;;;;6.67;6.00;;;;;;;;5010371;28;45549;-88
2022/02/01 07:44:45;;;;;;;;;5.33;4.00;;;;;;;;5009521;28;45898;-88
2022/02/01 07:47:18;;;;;;;;;5.00;3.00;;;;;;;;5009011;28;45498;-88
2022/02/01 07:49:43;;;;;;;;;6.00;2.00;;;;;;;;5009119;28;45492;-87
2022/02/01 07:52:08;;;;;;;;;0.67;0.00;;;;;;;;4991981;28;45393;-87
2022/02/01 07:54:33;;;;;;;;;5.00;3.00;;;;;;;;5014489;28;45471;-88
2022/02/01 07:56:59;;;;;;;;;3.33;2.67;;;;;;;;5013580;28;45330;-88
2022/02/01 07:59:24;;;;;;;;;3.00;2.00;;;;;;;;5012514;28;46743;-88
2022/02/01 08:01:49;;;;;;;;;5.00;2.00;;;;;;;;5013155;28;45411;-88
2022/02/01 08:04:14;;;;;;;;;3.00;2.00;;;;;;;;5012429;28;45403;-87
2022/02/01 08:06:40;;;;;;;;;3.00;1.00;;;;;;;;4995708;28;45475;-88
2022/02/01 08:09:14;;;;;;;;;3.00;2.33;;;;;;;;5012345;28;45665;-88
2022/02/01 08:11:39;;;;;;;;;5.67;3.00;;;;;;;;4997298;28;45907;-87
2022/02/01 08:17:03;;;;;;;;;3.67;3.00;;;;;;;;5009941;28;45579;-88
2022/02/01 08:19:38;;;;;;;;;5.67;5.67;;;;;;;;5004467;28;45778;-88
2022/02/01 08:22:09;;;;;;;;;7.67;3.00;;;;;;;;5010039;28;45420;-88
2022/02/01 08:24:35;;;;;;;;;9.67;6.00;;;;;;;;5006027;28;45521;-88
2022/02/01 08:27:00;;;;;;;;;2.67;2.33;;;;;;;;4985032;28;45719;-88
2022/02/01 08:29:25;;;;;;;;;4.67;2.00;;;;;;;;4991217;28;47465;-88
2022/02/01 08:31:51;;;;;;;;;4.33;4.33;;;;;;;;5009364;28;45316;-90
2022/02/01 08:34:19;;;;;;;;;3.00;3.00;;;;;;;;4992163;28;45485;-90
2022/02/01 08:36:44;;;;;;;;;6.67;4.33;;;;;;;;4993644;28;45398;-89
2022/02/01 08:39:09;;;;;;;;;3.67;2.67;;;;;;;;4982572;28;48004;-89
2022/02/01 08:41:35;;;;;;;;;3.00;3.00;;;;;;;;4987296;28;45541;-88
2022/02/01 08:44:02;;;;;;;;;4.67;3.00;;;;;;;;5005471;28;45465;-88
2022/02/01 08:46:27;;;;;;;;;7.33;4.00;;;;;;;;5000107;28;45634;-88
2022/02/01 08:48:52;;;;;;;;;4.00;4.00;;;;;;;;4994256;28;45606;-87
2022/02/01 08:51:20;;;;;;;;;8.00;2.00;;;;;;;;4983122;28;45549;-89
2022/02/01 08:53:57;;;;;;;;;6.33;3.00;;;;;;;;5007729;28;45466;-90
2022/02/01 08:59:06;;;;;;;;;1.00;1.00;;;;;;;;5011551;28;45412;-87
2022/02/01 09:01:31;;;;;;;;;2.00;2.00;;;;;;;;4996060;28;45516;-88
2022/02/01 09:03:58;;;;;;;;;3.00;3.00;;;;;;;;4992248;28;44987;-87
2022/02/01 09:06:24;;;;;;;;;2.00;2.00;;;;;;;;5002419;28;45353;-88
2022/02/01 09:08:49;;;;;;;;;6.00;1.67;;;;;;;;4985120;28;46966;-89
2022/02/01 09:11:14;;;;;;;;;3.00;2.33;;;;;;;;4990396;28;45448;-89
2022/02/01 09:13:40;;;;;;;;;3.00;2.00;;;;;;;;4990271;28;45833;-87
2022/02/01 09:16:06;;;;;;;;;3.00;2.67;;;;;;;;4994443;28;45348;-87
2022/02/01 09:18:31;;;;;;;;;6.00;3.00;;;;;;;;4999093;28;45408;-89
2022/02/01 09:20:57;;;;;;;;;4.00;3.00;;;;;;;;4996019;28;45900;-89
2022/02/01 09:23:22;;;;;;;;;8.67;5.00;;;;;;;;4997101;28;45498;-89
2022/02/01 09:25:48;;;;;;;;;3.00;2.00;;;;;;;;4995719;28;45433;-89
2022/02/01 09:28:13;;;;;;;;;4.00;4.00;;;;;;;;4991051;28;47334;-86
2022/02/01 09:30:39;;;;;;;;;3.00;3.00;;;;;;;;5016706;28;45346;-89
2022/02/01 09:33:04;;;;;;;;;4.00;4.00;;;;;;;;5002071;28;45364;-89
2022/02/01 09:35:29;;;;;;;;;4.67;3.67;;;;;;;;5014472;28;45512;-88
2022/02/01 09:37:55;;;;;;;;;2.67;2.00;;;;;;;;4996112;28;46949;-89
2022/02/01 09:40:20;;;;;;;;;2.00;2.00;;;;;;;;5010814;28;45421;-87
2022/02/01 09:42:45;;;;;;;;;3.00;2.00;;;;;;;;5006391;28;45503;-88
2022/02/01 09:45:11;;;;;;;;;3.00;3.00;;;;;;;;5014876;28;45574;-87
2022/02/01 09:47:38;;;;;;;;;3.00;3.00;;;;;;;;4998658;28;47315;-87
2022/02/01 09:50:04;;;;;;;;;2.67;2.67;;;;;;;;5014169;28;45976;-87
2022/02/01 09:52:30;;;;;;;;;3.00;1.00;;;;;;;;4993444;28;45560;-87
2022/02/01 09:54:56;;;;;;;;;7.00;3.67;;;;;;;;4981501;28;45631;-87
2022/02/01 09:57:21;;;;;;;;;3.67;3.67;;;;;;;;4985774;28;47213;-86
2022/02/01 09:59:57;;;;;;;;;4.00;4.00;;;;;;;;4989904;28;45584;-90
2022/02/01 10:02:33;;;;;;;;;4.00;3.00;;;;;;;;5008028;28;45535;-87
2022/02/01 10:05:03;;;;;;;;;3.67;2.67;;;;;;;;4988949;28;45485;-89
2022/02/01 10:07:28;;;;;;;;;4.67;3.00;;;;;;;;4988707;28;47452;-90
2022/02/01 10:09:57;;;;;;;;;5.33;4.00;;;;;;;;4992297;28;45361;-91
2022/02/01 10:12:26;;;;;;;;;4.67;4.00;;;;;;;;4994328;28;45349;-94
2022/02/01 10:14:55;;;;;;;;;3.67;3.00;;;;;;;;4994017;28;45881;-91
2022/02/01 10:17:27;;;;;;;;;4.00;4.00;;;;;;;;4988610;28;47262;-92
2022/02/01 10:19:52;;;;;;;;;3.00;2.00;;;;;;;;4993060;28;45875;-90
2022/02/01 10:22:27;;;;;;;;;6.67;4.67;;;;;;;;4990158;28;45472;-89
2022/02/01 10:24:53;;;;;;;;;4.00;3.00;;;;;;;;4995100;28;45428;-90
2022/02/01 10:27:19;;;;;;;;;3.33;2.67;;;;;;;;5002997;28;45406;-90
2022/02/01 10:29:51;;;;;;;;;6.67;4.00;;;;;;;;4991865;28;46070;-90
2022/02/01 10:32:23;;;;;;;;;2.00;2.00;;;;;;;;4986960;28;45456;-89
2022/02/01 10:34:49;;;;;;;;;2.67;2.00;;;;;;;;4998269;28;45542;-91
2022/02/01 10:37:16;;;;;;;;;2.33;2.33;;;;;;;;5005278;28;47594;-89
2022/02/01 10:39:41;;;;;;;;;3.67;3.67;;;;;;;;4993030;28;46063;-90
2022/02/01 10:42:11;;;;;;;;;2.00;2.00;;;;;;;;4992684;28;45389;-91
2022/02/01 10:44:39;;;;;;;;;3.00;3.00;;;;;;;;5006897;28;45443;-90
2022/02/01 10:47:05;;;;;;;;;6.00;3.00;;;;;;;;4987181;28;47394;-89
2022/02/01 10:49:31;;;;;;;;;4.00;4.00;;;;;;;;4983207;28;45971;-89
2022/02/01 10:52:07;;;;;;;;;3.33;2.67;;;;;;;;4992117;28;45550;-91
2022/02/01 10:54:36;;;;;;;;;4.00;3.00;;;;;;;;4986303;28;45481;-90
2022/02/01 10:57:02;;;;;;;;;2.00;2.00;;;;;;;;4982491;28;47300;-89
2022/02/01 10:59:27;;;;;;;;;5.33;3.00;;;;;;;;4980580;28;45669;-90
2022/02/01 11:01:54;;;;;;;;;3.00;3.00;;;;;;;;4995867;28;45634;-89
2022/02/01 11:04:20;;;;;;;;;4.00;2.00;;;;;;;;4990836;28;45429;-89
2022/02/01 11:06:47;;;;;;;;;3.00;2.00;;;;;;;;5010549;28;45535;-90
2022/02/01 11:09:12;;;;;;;;;2.67;1.67;;;;;;;;4997296;28;45377;-89
2022/02/01 11:11:48;;;;;;;;;3.33;3.00;;;;;;;;4979154;28;45481;-90
2022/02/01 11:14:33;;;;;;;;;3.67;3.00;;;;;;;;5007216;28;45338;-89
2022/02/01 11:17:03;;;;;;;;;3.33;3.33;;;;;;;;4991391;28;46387;-89
2022/02/01 11:19:29;;;;;;;;;2.33;2.00;;;;;;;;5008963;28;45461;-89
2022/02/01 11:21:55;;;;;;;;;4.33;2.00;;;;;;;;4977837;28;45496;-90
2022/02/01 11:24:30;;;;;;;;;7.00;3.00;;;;;;;;4991781;28;45693;-89
2022/02/01 11:27:29;;;;;;;;;2.00;2.00;;;;;;;;4999841;28;45849;-89
2022/02/01 11:32:30;;;;;;;;;3.00;3.00;;;;;;;;4933899;28;45668;-93
2022/02/01 11:35:06;;;;;;;;;5.00;3.00;;;;;;;;4917697;28;45413;-91
2022/02/01 11:37:31;;;;;;;;;6.67;4.00;;;;;;;;4932005;28;46591;-91
2022/02/01 11:39:58;;;;;;;;;4.00;3.00;;;;;;;;4941129;28;45403;-94
2022/02/01 11:42:29;;;;;;;;;3.00;3.00;;;;;;;;4932576;28;45392;-93
2022/02/01 11:44:59;;;;;;;;;3.67;3.33;;;;;;;;4916707;28;45719;-95
2022/02/01 11:47:31;;;;;;;;;6.33;4.00;;;;;;;;4913331;28;48993;-94
2022/02/01 11:49:58;;;;;;;;;4.67;3.67;;;;;;;;4931650;28;45867;-94
2022/02/01 11:52:24;;;;;;;;;3.67;3.67;;;;;;;;4932698;28;45446;-94
2022/02/01 11:54:59;;;;;;;;;4.00;4.00;;;;;;;;4932083;28;45476;-90
2022/02/01 11:57:25;;;;;;;;;3.67;3.67;;;;;;;;4927130;28;46780;-93
2022/02/01 11:59:50;;;;;;;;;4.00;4.00;;;;;;;;4939664;28;45445;-94
2022/02/01 12:02:28;;;;;;;;;4.00;4.00;;;;;;;;4932905;28;45501;-92
2022/02/01 12:05:04;;;;;;;;;3.00;3.00;;;;;;;;4930779;28;51689;-87
2022/02/01 12:07:40;;;;;;;;;6.00;6.00;;;;;;;;4980210;28;46324;-88
2022/02/01 12:10:12;;;;;;;;;3.33;3.33;;;;;;;;4972578;28;45907;-91
2022/02/01 12:12:38;;;;;;;;;6.33;4.33;;;;;;;;4986132;28;45554;-91
2022/02/01 12:15:03;;;;;;;;;3.67;2.00;;;;;;;;4986338;28;45607;-90
2022/02/01 12:17:28;;;;;;;;;5.33;5.33;;;;;;;;4984558;28;47295;-93
2022/02/01 12:19:57;;;;;;;;;4.00;4.00;;;;;;;;4976474;28;47639;-91
2022/02/01 12:22:29;;;;;;;;;4.00;4.00;;;;;;;;4987469;28;45562;-91
2022/02/01 12:25:05;;;;;;;;;4.67;3.00;;;;;;;;4972207;28;45854;-89
2022/02/01 12:27:34;;;;;;;;;5.33;5.33;;;;;;;;4987254;28;46854;-89
2022/02/01 12:30:00;;;;;;;;;6.67;4.67;;;;;;;;4977363;28;45575;-89
2022/02/01 12:32:25;;;;;;;;;5.33;2.33;;;;;;;;4975115;28;45572;-89
2022/02/01 12:34:51;;;;;;;;;4.67;4.67;;;;;;;;4976282;28;45506;-90
2022/02/01 12:37:20;;;;;;;;;5.67;3.67;;;;;;;;4987161;28;45667;-88
2022/02/01 12:39:56;;;;;;;;;2.00;2.00;;;;;;;;4975575;28;45279;-89
2022/02/01 12:42:31;;;;;;;;;3.00;3.00;;;;;;;;4988559;28;45317;-88
2022/02/01 12:47:40;;;;;;;;;5.67;4.00;;;;;;;;4987284;28;45416;-89
2022/02/01 12:50:05;;;;;;;;;5.33;5.33;;;;;;;;4997736;28;45440;-89
2022/02/01 12:52:32;;;;;;;;;6.33;4.00;;;;;;;;4997725;28;46066;-89
2022/02/01 12:54:57;;;;;;;;;4.67;4.00;;;;;;;;4994509;28;45855;-91
2022/02/01 12:57:23;;;;;;;;;4.67;4.00;;;;;;;;4991084;28;45443;-90
2022/02/01 12:59:52;;;;;;;;;9.00;6.67;;;;;;;;4981221;28;45745;-90
2022/02/01 13:02:21;;;;;;;;;6.33;4.00;;;;;;;;4983616;28;45483;-89
2022/02/01 13:04:51;;;;;;;;;11.67;5.33;;;;;;;;4989588;28;45913;-90
2022/02/01 13:07:29;;;;;;;;;7.00;4.33;;;;;;;;4977092;28;45683;-90
2022/02/01 13:18:12;;;;;;;;;7.33;4.00;;;;;;;;4979605;28;45679;-91
2022/02/01 13:20:41;;;;;;;;;5.33;5.33;;;;;;;;4982136;28;45837;-90
2022/02/01 13:23:07;;;;;;;;;3.67;3.67;;;;;;;;4985591;28;45769;-90
2022/02/01 13:25:37;;;;;;;;;9.00;5.33;;;;;;;;4987151;28;45556;-89
2022/02/01 13:28:04;;;;;;;;;4.67;4.67;;;;;;;;5002480;28;47189;-90
2022/02/01 13:30:29;;;;;;;;;7.67;3.00;;;;;;;;4995750;28;45674;-89
2022/02/01 13:33:03;;;;;;;;;12.00;3.67;;;;;;;;4994332;28;45440;-90
2022/02/01 13:35:28;;;;;;;;;4.00;2.00;;;;;;;;4992095;28;45950;-90
2022/02/01 13:37:53;;;;;;;;;4.00;3.00;;;;;;;;4994527;28;45469;-90
2022/02/01 13:40:26;;;;;;;;;4.00;3.00;;;;;;;;4980414;28;45986;-91
2022/02/01 13:42:52;;;;;;;;;2.00;2.00;;;;;;;;4987169;28;45519;-90
2022/02/01 13:45:17;;;;;;;;;7.33;2.00;;;;;;;;4993369;28;45438;-90
2022/02/01 13:47:43;;;;;;;;;1.00;1.00;;;;;;;;4993099;28;45599;-90
2022/02/01 13:50:10;;;;;;;;;3.67;3.67;;;;;;;;4992363;28;45906;-91
2022/02/01 13:52:36;;;;;;;;;2.67;2.67;;;;;;;;4990793;28;45344;-90
2022/02/01 13:55:02;;;;;;;;;3.67;2.67;;;;;;;;5002188;28;45586;-90
2022/02/01 13:57:32;;;;;;;;;1.33;1.33;;;;;;;;4995405;28;48992;-90
2022/02/01 14:00:09;;;;;;;;;1.67;1.67;;;;;;;;4997181;28;45506;-89
2022/02/01 14:02:39;;;;;;;;;6.67;2.67;;;;;;;;4990533;28;45546;-91
2022/02/01 14:05:14;;;;;;;;;3.00;3.00;;;;;;;;4988576;28;45370;-90
2022/02/01 14:28:54;;;;;;;;;4.67;3.67;;;;;;;;4978850;28;45340;-91
2022/02/01 14:36:31;;;;;;;;;5.67;5.67;;;;;;;;4991455;28;45431;-89
2022/02/01 14:46:45;;;;;;;;;3.33;3.33;;;;;;;;5010403;28;45611;-91
2022/02/01 14:49:10;;;;;;;;;5.67;4.33;;;;;;;;5005081;28;47704;-89
2022/02/01 14:51:36;;;;;;;;;4.00;4.00;;;;;;;;4996642;28;45541;-90
2022/02/01 14:54:01;;;;;;;;;6.33;3.33;;;;;;;;5006947;28;45400;-91
2022/02/01 14:56:33;;;;;;;;;7.67;3.00;;;;;;;;5009240;28;45524;-90
2022/02/01 15:07:12;;;;;;;;;6.00;3.33;;;;;;;;5009131;28;45504;-91
2022/02/01 15:14:59;;;;;;;;;5.67;2.33;;;;;;;;5009671;28;45468;-91
2022/02/01 15:17:24;;;;;;;;;8.33;4.00;;;;;;;;4991207;28;45692;-90
2022/02/01 15:19:49;;;;;;;;;4.33;3.00;;;;;;;;4991280;28;47193;-90
2022/02/01 15:22:15;;;;;;;;;6.33;4.00;;;;;;;;5021847;28;45343;-93
2022/02/01 15:24:40;;;;;;;;;5.67;4.33;;;;;;;;5008045;28;45662;-90
2022/02/01 15:27:05;;;;;;;;;2.33;2.33;;;;;;;;4986579;28;45740;-94
2022/02/01 15:29:31;;;;;;;;;3.33;3.00;;;;;;;;4992526;28;47284;-93
2022/02/01 15:31:56;;;;;;;;;3.33;3.33;;;;;;;;4991486;28;45592;-91
2022/02/01 15:34:22;;;;;;;;;3.67;2.00;;;;;;;;5003215;28;45229;-92
2022/02/01 15:36:47;;;;;;;;;2.33;2.33;;;;;;;;4991118;28;45557;-91
2022/02/01 15:58:03;;;;;;;;;3.00;3.00;;;;;;;;5012434;28;45479;-93
2022/02/01 16:00:29;;;;;;;;;7.00;4.33;;;;;;;;5007451;28;45476;-91
2022/02/01 16:02:56;;;;;;;;;6.00;4.67;;;;;;;;4986822;28;45351;-93
2022/02/01 16:05:21;;;;;;;;;2.00;2.00;;;;;;;;5012465;28;45334;-95
2022/02/01 16:07:48;;;;;;;;;5.00;3.00;;;;;;;;5010593;28;45507;-94
2022/02/01 16:10:29;;;;;;;;;3.67;2.00;;;;;;;;4992962;28;47208;-91
2022/02/01 16:13:02;;;;;;;;;4.00;3.00;;;;;;;;4993751;28;45657;-94
2022/02/01 16:15:27;;;;;;;;;5.00;3.67;;;;;;;;4991605;28;45524;-94
2022/02/01 16:17:52;;;;;;;;;4.00;3.33;;;;;;;;4992644;28;45358;-92
2022/02/01 16:20:17;;;;;;;;;3.67;3.67;;;;;;;;4998638;28;48458;-91
2022/02/01 16:22:44;;;;;;;;;7.33;7.33;;;;;;;;4994093;28;46167;-95
2022/02/01 16:25:09;;;;;;;;;8.00;7.33;;;;;;;;5011251;28;45517;-93
2022/02/01 16:27:35;;;;;;;;;27.00;19.67;;;;;;;;4998080;28;45457;-95
2022/02/01 16:30:14;;;;;;;;;30.33;21.67;;;;;;;;4995815;28;47319;-95
2022/02/01 16:32:39;;;;;;;;;15.00;12.67;;;;;;;;5016432;28;45297;-96
2022/02/01 16:35:05;;;;;;;;;15.33;13.33;;;;;;;;4998456;28;44838;-96
2022/02/01 16:37:31;;;;;;;;;10.33;8.67;;;;;;;;5013943;28;45654;-94
2022/02/01 16:39:56;;;;;;;;;11.33;10.00;;;;;;;;5020521;28;47314;-92
2022/02/01 16:42:21;;;;;;;;;19.00;17.67;;;;;;;;5027563;28;45589;-92
2022/02/01 16:44:46;;;;;;;;;17.00;16.00;;;;;;;;4991664;28;45764;-94
2022/02/01 16:47:13;;;;;;;;;14.67;12.67;;;;;;;;4992584;28;45519;-94
2022/02/01 16:49:39;;;;;;;;;20.00;17.00;;;;;;;;4997515;28;48430;-92
2022/02/01 16:52:08;;;;;;;;;13.67;10.33;;;;;;;;4996979;28;52118;-95
2022/02/01 16:54:45;;;;;;;;;11.00;9.67;;;;;;;;5011855;28;45490;-91
2022/02/01 16:57:12;;;;;;;;;11.00;8.67;;;;;;;;5010721;28;45507;-94
2022/02/01 16:59:40;;;;;;;;;11.33;9.00;;;;;;;;5001648;28;45467;-94
2022/02/01 17:02:06;;;;;;;;;10.00;8.67;;;;;;;;4998184;28;45314;-92
2022/02/01 17:04:31;;;;;;;;;5.33;2.67;;;;;;;;5011646;28;45347;-94
2022/02/01 17:06:56;;;;;;;;;7.33;7.33;;;;;;;;4996400;28;45350;-93
2022/02/01 17:09:25;;;;;;;;;12.00;8.33;;;;;;;;5010844;28;46328;-94
2022/02/01 17:12:04;;;;;;;;;12.00;10.67;;;;;;;;5012617;28;45620;-95
2022/02/01 17:17:37;;;;;;;;;9.33;8.00;;;;;;;;5008820;28;45392;-93
2022/02/01 17:22:31;;;;;;;;;15.33;15.33;;;;;;;;5010077;28;45651;-93
2022/02/01 17:24:56;;;;;;;;;14.33;11.67;;;;;;;;5012108;28;45907;-93
2022/02/01 17:27:21;;;;;;;;;12.00;10.00;;;;;;;;4986251;28;45554;-92
2022/02/01 17:29:46;;;;;;;;;12.67;10.00;;;;;;;;4994529;28;48571;-93
2022/02/01 17:32:12;;;;;;;;;12.00;11.67;;;;;;;;5016940;28;45532;-93
2022/02/01 17:34:37;;;;;;;;;15.00;11.00;;;;;;;;5009784;28;45580;-93